• Join FlightAware (Why Join?)
  • Login
  • US Flag 
05:00AM EDT


 

Airport Tracker/Info


-or-


 

Live Flight TrackerFlight Track Log ✈ BJS339 ✈ 09-Jun-2014 ✈ KBCT - KVRB

Flight Track Log - Related Links

Times and Time Zones

All times are in EDT time to prevent confusion due to time zone crossing. See the BJS339 flight status page for this flight to view local times or setup timezone preferences in your user account.

Time Position Orientation Groundspeed Altitude Reporting Facility
EDT Latitude Longitude Course Direction KTS MPH feet Rate Location/Type
01:38PM 26.5156 -80.1531 350° North 272 313 6,000  Level Miami Center
01:39PM 26.5781 -80.2011 325° Northwest 272 313 6,000  Level Miami Center
01:40PM 26.6528 -80.2181 349° North 275 316 6,000  Level Miami Center
01:41PM 26.7342 -80.2347 350° North 277 319 6,000  Level Miami Center
01:42PM 26.7905 -80.1962 350° North  Level FlightAware Approximate
01:42PM 26.8103 -80.2492 350° North 277 319 6,000  Level Miami Center
01:43PM 26.8592 -80.2103 350° North  Level FlightAware Approximate
01:43PM 26.8839 -80.2639 350° North 276 318 6,000  Level Miami Center
01:44PM 26.9694 -80.2811 350° North 276 318 5,900 -840 Descending Miami Center
01:45PM 27.0472 -80.2967 350° North 275 316 4,300 -960 Descending Miami Center
01:46PM 27.1153 -80.3106 350° North 265 305 4,000 -180 Descending Miami Center
01:47PM 27.1917 -80.3250 350° North 264 304 4,000  Level Miami Center
01:48PM 27.2656 -80.3453 346° North 260 299 4,000  Level Miami Center
01:49PM 27.3386 -80.3719 342° North 261 300 4,000  Level Miami Center
01:50PM 27.4108 -80.3967 343° North 261 300 4,000 -480 Level Miami Center
01:51PM 27.4836 -80.4219 343° North 261 300 3,100 -540 Descending Miami Center
01:52PM 27.5486 -80.4439 343° North 258 297 3,000 -480 Descending Miami Center
01:53PM 27.6142 -80.4661 343° North 240 276 2,200 -780 Descending Miami Center
01:54PM 27.6628 -80.4881 338° Northwest 191 220 1,500 -840 Descending Miami Center
01:55PM 27.6653 -80.4511 86° East 134 154 500 -1,020 Descending Miami Center